createdAt,value
2023-05-06T00:00:05.550Z,99.99
2023-05-06T00:01:04.905Z,99.99
2023-05-06T00:02:05.495Z,99.99
2023-05-06T00:03:04.971Z,99.99
2023-05-06T00:04:05.005Z,99.99
2023-05-06T00:05:04.936Z,99.99
2023-05-06T00:06:04.900Z,99.99
2023-05-06T00:07:04.836Z,99.99
2023-05-06T00:08:05.588Z,99.99
2023-05-06T00:09:04.874Z,99.99
2023-05-06T00:10:04.834Z,99.99
2023-05-06T00:11:04.833Z,99.99
2023-05-06T00:12:04.821Z,99.99
2023-05-06T00:13:04.821Z,99.99
2023-05-06T00:14:04.767Z,99.99
2023-05-06T00:15:05.551Z,99.99
2023-05-06T00:16:04.865Z,99.99
2023-05-06T00:17:04.782Z,99.99
2023-05-06T00:18:04.808Z,99.99
2023-05-06T00:19:04.733Z,99.99
2023-05-06T00:20:04.751Z,99.99
2023-05-06T00:21:04.770Z,99.99
2023-05-06T00:22:05.366Z,99.99
2023-05-06T00:23:04.751Z,99.99
2023-05-06T00:24:04.696Z,99.99
2023-05-06T00:25:04.716Z,99.99
2023-05-06T00:26:04.721Z,99.99
2023-05-06T00:27:04.700Z,99.99
2023-05-06T00:28:04.691Z,99.99
2023-05-06T00:29:04.662Z,99.99
2023-05-06T00:30:04.669Z,99.99
2023-05-06T00:31:04.658Z,99.99
2023-05-06T00:32:04.787Z,99.99
2023-05-06T00:33:04.702Z,99.99
2023-05-06T00:34:04.637Z,99.99
2023-05-06T00:35:04.654Z,99.99
2023-05-06T00:36:04.608Z,99.99
2023-05-06T00:37:04.634Z,99.99
2023-05-06T00:38:04.603Z,99.99
2023-05-06T00:39:05.374Z,99.99
2023-05-06T00:40:04.656Z,99.99
2023-05-06T00:41:04.569Z,99.99
2023-05-06T00:42:04.584Z,99.99
2023-05-06T00:43:04.605Z,99.99
2023-05-06T00:44:04.614Z,99.99
2023-05-06T00:45:04.544Z,99.99
2023-05-06T00:46:05.576Z,99.99
2023-05-06T00:47:04.530Z,99.99
2023-05-06T00:48:04.650Z,99.99
2023-05-06T00:49:04.512Z,99.99
2023-05-06T00:50:04.554Z,99.99
2023-05-06T00:51:04.998Z,99.99
2023-05-06T00:52:04.494Z,99.99
2023-05-06T00:53:04.507Z,99.99
2023-05-06T00:54:04.479Z,99.99
2023-05-06T00:55:04.468Z,99.99
2023-05-06T00:56:04.496Z,99.99
2023-05-06T00:57:04.439Z,99.99
2023-05-06T00:58:04.463Z,99.99
2023-05-06T00:59:04.446Z,99.99
2023-05-06T01:00:05.441Z,99.99
2023-05-06T01:01:06.923Z,99.99
2023-05-06T01:02:05.327Z,99.99
2023-05-06T01:03:08.828Z,99.99
2023-05-06T01:04:07.826Z,99.99
2023-05-06T01:05:05.381Z,99.99
2023-05-06T01:06:08.433Z,99.99
2023-05-06T01:07:05.399Z,99.99
2023-05-06T01:08:04.380Z,99.99
2023-05-06T01:09:04.377Z,99.99
2023-05-06T01:10:04.374Z,99.99
2023-05-06T01:11:04.364Z,99.99
2023-05-06T01:12:04.379Z,99.99
2023-05-06T01:13:04.396Z,99.99
2023-05-06T01:14:04.314Z,99.99
2023-05-06T01:15:04.351Z,99.99
2023-05-06T01:16:04.330Z,99.99
2023-05-06T01:17:04.374Z,99.99
2023-05-06T01:18:04.355Z,99.99
2023-05-06T01:19:04.351Z,99.99
2023-05-06T01:20:04.277Z,99.99
2023-05-06T01:21:04.277Z,99.99
2023-05-06T01:22:04.277Z,99.99
2023-05-06T01:23:04.251Z,99.99
2023-05-06T01:24:04.239Z,99.99
2023-05-06T01:25:04.254Z,99.99
2023-05-06T01:26:04.256Z,99.99
2023-05-06T01:27:05.124Z,99.99
2023-05-06T01:28:04.235Z,99.99
2023-05-06T01:29:04.211Z,99.99
2023-05-06T01:30:04.204Z,99.99
2023-05-06T01:31:04.240Z,99.99
2023-05-06T01:32:04.175Z,99.99
2023-05-06T01:33:04.228Z,99.99
2023-05-06T01:34:04.169Z,99.99
2023-05-06T01:35:04.211Z,99.99
2023-05-06T01:36:04.174Z,99.99
2023-05-06T01:37:04.147Z,99.99
2023-05-06T01:38:04.149Z,99.99
2023-05-06T01:39:04.127Z,99.99
2023-05-06T01:40:04.128Z,99.99
2023-05-06T01:41:04.142Z,99.99
2023-05-06T01:42:04.162Z,99.99
2023-05-06T01:43:04.106Z,99.99
2023-05-06T01:44:04.082Z,99.99
2023-05-06T01:45:04.139Z,99.99
2023-05-06T01:46:04.115Z,99.99
2023-05-06T01:47:04.090Z,99.99
2023-05-06T01:48:04.124Z,99.99
2023-05-06T01:49:04.048Z,99.99
2023-05-06T01:50:04.031Z,99.99
2023-05-06T01:51:04.130Z,99.99
2023-05-06T01:52:04.079Z,99.99
2023-05-06T01:53:04.045Z,99.99
2023-05-06T01:54:03.998Z,99.99
2023-05-06T01:55:04.022Z,99.99
2023-05-06T01:56:04.002Z,99.99
2023-05-06T01:57:04.035Z,99.99
2023-05-06T01:58:04.002Z,99.99
2023-05-06T01:59:04.532Z,99.99
2023-05-06T02:00:04.002Z,99.99
2023-05-06T02:01:03.970Z,99.99
2023-05-06T02:02:04.076Z,99.99
2023-05-06T02:03:04.057Z,99.99
2023-05-06T02:04:04.147Z,99.99
2023-05-06T02:05:03.956Z,99.99
2023-05-06T02:06:03.945Z,99.99
2023-05-06T02:07:03.971Z,99.99
2023-05-06T02:08:03.924Z,99.99
2023-05-06T02:09:03.908Z,99.99
2023-05-06T02:10:04.880Z,99.99
2023-05-06T02:11:03.904Z,99.99
2023-05-06T02:12:03.888Z,99.99
2023-05-06T02:13:03.966Z,99.99
2023-05-06T02:14:03.885Z,99.99
2023-05-06T02:15:03.892Z,99.99
2023-05-06T02:16:03.870Z,99.99
2023-05-06T02:17:03.853Z,99.99
2023-05-06T02:18:03.889Z,99.99
2023-05-06T02:19:03.823Z,99.99
2023-05-06T02:20:04.404Z,99.99
2023-05-06T02:21:03.826Z,99.99
2023-05-06T02:22:03.805Z,99.99
2023-05-06T02:23:03.859Z,99.99
2023-05-06T02:24:03.816Z,99.99
2023-05-06T02:25:03.802Z,99.99
2023-05-06T02:26:03.783Z,99.99
2023-05-06T02:27:03.771Z,99.99
2023-05-06T02:28:03.774Z,99.99
2023-05-06T02:29:03.779Z,99.99
2023-05-06T02:30:03.751Z,99.99
2023-05-06T02:31:03.760Z,99.99
2023-05-06T02:32:03.730Z,99.99
2023-05-06T02:33:03.818Z,99.99
2023-05-06T02:34:03.738Z,99.99
2023-05-06T02:35:03.716Z,99.99
2023-05-06T02:36:03.736Z,99.99
2023-05-06T02:37:03.716Z,99.99
2023-05-06T02:38:04.489Z,99.99
2023-05-06T02:39:03.802Z,99.99
2023-05-06T02:40:03.719Z,99.99
2023-05-06T02:41:03.696Z,99.99
2023-05-06T02:42:03.663Z,99.99
2023-05-06T02:43:03.723Z,99.99
2023-05-06T02:44:03.660Z,99.99
2023-05-06T02:45:04.388Z,99.99
2023-05-06T02:46:04.562Z,99.99
2023-05-06T02:47:03.629Z,99.99
2023-05-06T02:48:03.672Z,99.99
2023-05-06T02:49:03.640Z,99.99
2023-05-06T02:50:03.605Z,99.99
2023-05-06T02:51:03.619Z,99.99
2023-05-06T02:52:03.580Z,99.99
2023-05-06T02:53:03.600Z,99.99
2023-05-06T02:54:03.585Z,99.99
2023-05-06T02:55:03.692Z,99.99
2023-05-06T02:56:03.549Z,99.99
2023-05-06T02:57:03.702Z,99.99
2023-05-06T02:58:03.559Z,99.99
2023-05-06T02:59:03.540Z,99.99
2023-05-06T03:00:03.549Z,99.99
2023-05-06T03:01:03.552Z,99.99
2023-05-06T03:02:03.512Z,99.99
2023-05-06T03:03:03.569Z,99.99
2023-05-06T03:04:03.517Z,99.99
2023-05-06T03:05:03.500Z,99.99
2023-05-06T03:06:04.044Z,99.99
2023-05-06T03:07:03.475Z,99.99
2023-05-06T03:08:03.506Z,99.99
2023-05-06T03:09:03.454Z,99.99
2023-05-06T03:10:03.444Z,99.99
2023-05-06T03:11:03.456Z,99.99
2023-05-06T03:12:03.433Z,99.99
2023-05-06T03:13:03.574Z,99.99
2023-05-06T03:14:03.422Z,99.99
2023-05-06T03:15:03.434Z,99.99
2023-05-06T03:16:03.426Z,99.99
2023-05-06T03:17:04.913Z,99.99
2023-05-06T03:18:03.495Z,99.99
2023-05-06T03:19:03.421Z,99.99
2023-05-06T03:20:03.397Z,99.99
2023-05-06T03:21:03.449Z,99.99
2023-05-06T03:22:03.368Z,99.99
2023-05-06T03:23:03.368Z,99.99
2023-05-06T03:24:03.379Z,99.99
2023-05-06T03:25:03.385Z,99.99
2023-05-06T03:26:03.346Z,99.99
2023-05-06T03:27:03.334Z,99.99
2023-05-06T03:28:03.323Z,99.99
2023-05-06T03:29:03.303Z,99.99
2023-05-06T03:30:03.324Z,99.99
2023-05-06T03:31:03.361Z,99.99
2023-05-06T03:32:03.308Z,99.99
2023-05-06T03:33:03.350Z,99.99
2023-05-06T03:34:03.898Z,99.99
2023-05-06T03:35:03.288Z,99.99
2023-05-06T03:36:03.299Z,99.99
2023-05-06T03:37:03.278Z,99.99
2023-05-06T03:38:03.228Z,99.99
2023-05-06T03:39:03.241Z,99.99
2023-05-06T03:40:03.223Z,99.99
2023-05-06T03:41:03.909Z,99.99
2023-05-06T03:42:03.236Z,99.99
2023-05-06T03:43:03.928Z,99.99
2023-05-06T03:44:03.915Z,99.99
2023-05-06T03:45:03.180Z,99.99
2023-05-06T03:46:03.233Z,99.99
2023-05-06T03:47:03.168Z,99.99
2023-05-06T04:03:01.904Z,99.99
2023-05-06T04:04:01.819Z,99.99
2023-05-06T04:05:03.433Z,99.99
2023-05-06T04:06:02.794Z,99.99
2023-05-06T04:07:03.296Z,99.99
2023-05-06T04:08:02.791Z,99.99
2023-05-06T04:09:02.777Z,99.99
2023-05-06T04:10:02.835Z,99.99
2023-05-06T04:11:02.757Z,99.99
2023-05-06T04:12:02.772Z,99.99
2023-05-06T04:13:02.826Z,99.99
2023-05-06T04:14:02.727Z,99.99
2023-05-06T04:15:02.745Z,99.99
2023-05-06T04:16:02.893Z,99.99
2023-05-06T04:17:02.755Z,99.99
2023-05-06T04:18:02.742Z,99.99
2023-05-06T04:19:05.748Z,99.99
2023-05-06T04:20:02.713Z,99.99
2023-05-06T04:21:02.683Z,99.99
2023-05-06T04:22:02.724Z,99.99
2023-05-06T04:23:02.685Z,99.99
2023-05-06T04:24:02.688Z,99.99
2023-05-06T04:25:02.709Z,99.99
2023-05-06T04:26:02.691Z,99.99
2023-05-06T04:27:02.653Z,99.99
2023-05-06T04:28:02.651Z,99.99
2023-05-06T04:29:02.645Z,99.99
2023-05-06T04:30:02.674Z,99.99
2023-05-06T04:31:02.621Z,99.99
2023-05-06T04:32:02.717Z,99.99
2023-05-06T04:33:02.660Z,99.99
2023-05-06T04:34:02.667Z,99.99
2023-05-06T04:35:02.633Z,99.99
2023-05-06T04:36:02.614Z,99.99
2023-05-06T04:37:02.584Z,99.99
2023-05-06T04:38:02.578Z,99.99
2023-05-06T04:39:02.560Z,99.99
2023-05-06T04:40:02.549Z,99.99
2023-05-06T04:41:03.443Z,99.99
2023-05-06T04:42:02.571Z,99.99
2023-05-06T04:43:02.527Z,99.99
2023-05-06T04:44:02.520Z,99.99
2023-05-06T04:45:02.525Z,99.99
2023-05-06T04:46:02.537Z,99.99
2023-05-06T04:47:02.497Z,99.99
2023-05-06T04:48:02.519Z,99.99
2023-05-06T04:49:02.474Z,99.99
2023-05-06T04:50:02.490Z,99.99
2023-05-06T04:51:02.504Z,99.99
2023-05-06T04:52:02.517Z,99.99
2023-05-06T04:53:02.465Z,99.99
2023-05-06T04:54:02.421Z,99.99
2023-05-06T04:55:02.428Z,99.99
2023-05-06T04:56:02.467Z,99.99
2023-05-06T04:57:02.519Z,99.99
2023-05-06T04:58:34.350Z,99.99
2023-05-06T05:01:46.508Z,99.99
2023-05-06T05:04:19.201Z,99.99
2023-05-06T05:05:26.948Z,99.99
2023-05-06T05:06:52.298Z,99.99
2023-05-06T05:07:52.894Z,99.99
2023-05-06T05:08:55.413Z,99.99
2023-05-06T05:09:20.325Z,99.99
2023-05-06T05:10:20.305Z,99.99
2023-05-06T05:11:20.317Z,99.99
2023-05-06T05:12:20.352Z,99.99
2023-05-06T05:13:20.373Z,99.99
2023-05-06T05:14:20.301Z,99.99
2023-05-06T05:15:20.285Z,99.99
2023-05-06T05:16:20.314Z,99.99
2023-05-06T05:17:20.266Z,99.99
2023-05-06T05:18:20.311Z,99.99
2023-05-06T05:19:20.268Z,99.99
2023-05-06T05:20:20.236Z,99.99
2023-05-06T05:21:20.228Z,99.99
2023-05-06T05:22:20.278Z,99.99
2023-05-06T05:23:20.229Z,99.99
2023-05-06T05:24:20.205Z,99.99
2023-05-06T05:25:20.196Z,99.99
2023-05-06T05:26:20.180Z,99.99
2023-05-06T05:27:20.258Z,99.99
2023-05-06T05:28:20.175Z,99.99
2023-05-06T05:29:20.216Z,99.99
2023-05-06T05:30:20.161Z,99.99
2023-05-06T05:31:20.182Z,99.99
2023-05-06T05:32:20.249Z,99.99
2023-05-06T05:33:22.211Z,99.99
2023-05-06T05:34:20.153Z,99.99
2023-05-06T05:35:20.155Z,99.99
2023-05-06T05:36:20.136Z,99.99
2023-05-06T05:37:20.116Z,99.99
2023-05-06T05:38:20.148Z,99.99
2023-05-06T05:39:20.134Z,99.99
2023-05-06T05:40:20.130Z,99.99
2023-05-06T05:41:20.197Z,99.99
2023-05-06T05:42:20.079Z,99.99
2023-05-06T05:43:20.066Z,99.99
2023-05-06T05:44:20.056Z,99.99
2023-05-06T05:45:20.229Z,99.99
2023-05-06T05:46:20.085Z,99.99
2023-05-06T05:47:20.044Z,99.99
2023-05-06T05:48:20.039Z,99.99
2023-05-06T05:49:21.019Z,99.99
2023-05-06T05:50:20.238Z,99.99
2023-05-06T05:51:21.035Z,99.99
2023-05-06T05:52:20.053Z,99.99
2023-05-06T05:53:19.991Z,99.99
2023-05-06T05:54:20.034Z,99.99
2023-05-06T05:55:19.947Z,99.99
2023-05-06T05:56:19.962Z,99.99
2023-05-06T05:57:19.945Z,99.99
2023-05-06T05:58:19.933Z,99.99
2023-05-06T05:59:19.935Z,99.99
2023-05-06T06:00:19.932Z,99.99
2023-05-06T06:01:19.943Z,99.99
2023-05-06T06:02:19.988Z,99.99
2023-05-06T06:03:20.157Z,99.99
2023-05-06T06:04:19.932Z,99.99
2023-05-06T06:05:19.886Z,99.99
2023-05-06T06:06:19.899Z,99.99
2023-05-06T06:07:19.882Z,99.99
2023-05-06T06:08:19.891Z,99.99
2023-05-06T06:09:20.020Z,99.99
2023-05-06T06:10:19.857Z,99.99
2023-05-06T06:11:19.924Z,99.99
2023-05-06T06:12:19.845Z,99.99
2023-05-06T06:13:20.038Z,99.99
2023-05-06T06:14:19.862Z,99.99
2023-05-06T06:15:19.803Z,99.99
2023-05-06T06:16:19.903Z,99.99
2023-05-06T06:17:19.785Z,99.99
2023-05-06T06:18:20.421Z,99.99
2023-05-06T06:19:19.835Z,99.99
2023-05-06T06:20:20.378Z,99.55
2023-05-06T06:21:19.787Z,99.99
2023-05-06T06:22:19.754Z,99.86
2023-05-06T06:23:19.797Z,99.45
2023-05-06T06:24:19.755Z,99.76
2023-05-06T06:25:19.761Z,99.66
2023-05-06T06:26:19.859Z,98.69
2023-05-06T06:27:19.753Z,99.36
2023-05-06T06:28:19.711Z,97.73
2023-05-06T06:29:19.805Z,97.42
2023-05-06T06:30:19.733Z,97.28
2023-05-06T06:31:19.789Z,95.75
2023-05-06T06:32:19.798Z,96.27
2023-05-06T06:33:19.742Z,95.99
2023-05-06T06:34:19.695Z,92.12
2023-05-06T06:35:20.622Z,88.35
2023-05-06T06:36:19.669Z,85.80
2023-05-06T06:37:19.673Z,88.74
2023-05-06T06:38:19.659Z,86.25
2023-05-06T06:39:19.670Z,87.05
2023-05-06T06:40:53.506Z,87.05
2023-05-06T06:41:52.518Z,87.20
2023-05-06T06:42:53.557Z,87.87
2023-05-06T06:43:53.048Z,87.88
2023-05-06T06:44:19.615Z,85.22
2023-05-06T06:45:52.209Z,84.17
2023-05-06T06:46:19.638Z,82.55
2023-05-06T06:47:52.096Z,82.55
2023-05-06T06:48:19.545Z,82.28
2023-05-06T06:49:19.575Z,84.69
2023-05-06T06:50:19.540Z,84.36
2023-05-06T06:51:19.577Z,85.66
2023-05-06T06:52:19.515Z,81.60
2023-05-06T06:53:19.562Z,78.72
2023-05-06T06:54:19.522Z,78.11
2023-05-06T06:55:19.535Z,76.20
2023-05-06T06:56:19.490Z,76.54
2023-05-06T06:57:19.503Z,78.09
2023-05-06T06:58:20.498Z,78.19
2023-05-06T06:59:19.519Z,76.67
2023-05-06T07:00:19.478Z,77.64
2023-05-06T07:01:19.502Z,76.23
2023-05-06T07:02:20.694Z,75.59
2023-05-06T07:03:19.698Z,73.14
2023-05-06T07:04:19.455Z,71.56
2023-05-06T07:05:19.440Z,71.39
2023-05-06T07:06:19.443Z,70.36
2023-05-06T07:07:19.480Z,70.59
2023-05-06T07:08:19.454Z,70.39
2023-05-06T07:09:19.401Z,66.86
2023-05-06T07:10:52.112Z,67.79
2023-05-06T07:11:20.138Z,65.86
2023-05-06T07:12:19.420Z,66.43
2023-05-06T07:13:19.501Z,64.73
2023-05-06T07:14:19.404Z,63.30
2023-05-06T07:15:19.387Z,62.64
2023-05-06T07:16:19.430Z,63.47
2023-05-06T07:17:19.451Z,62.08
2023-05-06T07:18:19.385Z,62.85
2023-05-06T07:19:19.356Z,62.57
2023-05-06T07:20:19.318Z,64.10
2023-05-06T07:21:19.346Z,65.19
2023-05-06T07:22:19.348Z,63.93
2023-05-06T07:23:19.309Z,63.33
2023-05-06T07:24:19.294Z,63.19
2023-05-06T07:25:19.298Z,65.69
2023-05-06T07:26:19.262Z,67.45
2023-05-06T07:27:19.268Z,70.79
2023-05-06T07:28:19.261Z,70.32
2023-05-06T07:29:19.348Z,73.55
2023-05-06T07:30:20.929Z,73.98
2023-05-06T07:31:19.308Z,70.53
2023-05-06T07:32:19.262Z,66.85
2023-05-06T07:33:19.249Z,66.96
2023-05-06T07:34:19.225Z,63.43
2023-05-06T07:35:19.219Z,61.27
2023-05-06T07:36:19.231Z,60.88
2023-05-06T07:37:19.223Z,61.96
2023-05-06T07:38:19.254Z,64.51
2023-05-06T07:39:19.178Z,64.72
2023-05-06T07:40:19.164Z,66.99
2023-05-06T07:41:19.215Z,69.02
2023-05-06T07:42:19.170Z,66.99
2023-05-06T07:43:19.162Z,66.36
2023-05-06T07:44:19.158Z,65.43
2023-05-06T07:45:19.136Z,63.67
2023-05-06T07:46:19.224Z,61.71
2023-05-06T07:47:19.172Z,62.15
2023-05-06T07:48:20.132Z,60.35
2023-05-06T07:49:20.108Z,60.85
2023-05-06T07:50:19.098Z,64.89
2023-05-06T07:51:19.100Z,68.35
2023-05-06T07:52:19.132Z,67.72
2023-05-06T07:53:19.092Z,68.79
2023-05-06T07:54:19.086Z,67.59
2023-05-06T07:55:19.097Z,67.75
2023-05-06T07:56:19.115Z,71.97
2023-05-06T07:57:19.065Z,73.58
2023-05-06T07:58:19.078Z,73.18
2023-05-06T07:59:19.036Z,70.96
2023-05-06T08:00:19.032Z,68.39
2023-05-06T08:01:19.154Z,68.89
2023-05-06T08:02:19.084Z,69.49
2023-05-06T08:03:19.186Z,66.93
2023-05-06T08:04:19.048Z,64.13
2023-05-06T08:05:19.030Z,63.34
2023-05-06T08:06:19.013Z,62.34
2023-05-06T08:07:19.042Z,61.85
2023-05-06T08:08:19.060Z,61.25
2023-05-06T08:09:22.876Z,60.55
2023-05-06T08:10:19.971Z,64.36
2023-05-06T08:11:19.508Z,68.79
2023-05-06T08:12:19.990Z,70.19
2023-05-06T08:13:19.626Z,70.09
2023-05-06T08:14:18.955Z,66.09
2023-05-06T08:15:18.953Z,66.66
2023-05-06T08:16:19.104Z,63.39
2023-05-06T08:17:19.021Z,66.36
2023-05-06T08:18:22.867Z,68.52
2023-05-06T08:19:19.917Z,68.29
2023-05-06T08:20:18.926Z,67.52
2023-05-06T08:21:18.888Z,64.16
2023-05-06T08:22:18.888Z,64.36
2023-05-06T08:23:18.898Z,68.65
2023-05-06T08:24:18.851Z,67.12
2023-05-06T08:25:18.856Z,68.59
2023-05-06T08:26:19.731Z,68.39
2023-05-06T08:27:18.845Z,65.75
2023-05-06T08:28:18.893Z,66.32
2023-05-06T08:29:18.839Z,66.95
2023-05-06T08:30:18.814Z,67.12
2023-05-06T08:31:18.883Z,66.72
2023-05-06T08:32:18.802Z,66.71
2023-05-06T08:33:18.801Z,70.73
2023-05-06T08:34:18.804Z,70.32
2023-05-06T08:35:18.813Z,71.36
2023-05-06T08:36:18.755Z,70.26
2023-05-06T08:37:18.834Z,68.22
2023-05-06T08:38:18.792Z,68.45
2023-05-06T08:39:18.796Z,68.59
2023-05-06T08:40:18.764Z,66.86
2023-05-06T08:41:18.745Z,64.98
2023-05-06T08:42:18.714Z,66.92
2023-05-06T08:43:18.748Z,68.29
2023-05-06T08:44:19.761Z,65.43
2023-05-06T08:45:18.743Z,63.67
2023-05-06T08:46:18.890Z,62.34
2023-05-06T08:47:18.692Z,64.79
2023-05-06T08:48:18.706Z,64.46
2023-05-06T08:49:18.781Z,63.39
2023-05-06T08:50:18.671Z,65.65
2023-05-06T08:51:18.673Z,65.22
2023-05-06T08:52:18.696Z,63.43
2023-05-06T08:53:18.682Z,63.30
2023-05-06T08:54:18.660Z,63.07
2023-05-06T08:55:18.657Z,62.18
2023-05-06T08:56:18.653Z,63.76
2023-05-06T08:57:18.638Z,62.99
2023-05-06T08:58:18.601Z,65.48
2023-05-06T08:59:18.641Z,67.18
2023-05-06T09:00:18.640Z,67.65
2023-05-06T09:01:18.646Z,68.09
2023-05-06T09:02:18.640Z,65.89
2023-05-06T09:03:18.867Z,66.02
2023-05-06T09:04:51.538Z,67.76
2023-05-06T09:05:18.544Z,66.08
2023-05-06T09:06:18.536Z,67.38
2023-05-06T09:07:18.641Z,67.69
2023-05-06T09:08:18.538Z,68.15
2023-05-06T09:09:18.536Z,67.68
2023-05-06T09:10:18.557Z,70.46
2023-05-06T09:11:18.511Z,69.96
2023-05-06T09:12:18.527Z,70.93
2023-05-06T09:13:18.675Z,67.19
2023-05-06T09:14:18.526Z,65.19
2023-05-06T09:15:18.499Z,63.83
2023-05-06T09:16:18.562Z,63.57
2023-05-06T09:17:19.179Z,61.22
2023-05-06T09:18:19.265Z,61.03
2023-05-06T09:19:18.464Z,60.33
2023-05-06T09:20:18.682Z,59.06
2023-05-06T09:21:18.447Z,61.85
2023-05-06T09:22:18.444Z,62.86
2023-05-06T09:23:18.483Z,65.95
2023-05-06T09:24:18.455Z,67.22
2023-05-06T09:25:18.404Z,67.45
2023-05-06T09:26:18.416Z,67.05
2023-05-06T09:27:18.429Z,67.05
2023-05-06T09:28:18.390Z,66.82
2023-05-06T09:29:18.403Z,67.12
2023-05-06T09:30:18.449Z,66.65
2023-05-06T09:31:18.395Z,67.76
2023-05-06T09:32:18.394Z,66.52
2023-05-06T09:33:18.377Z,67.18
2023-05-06T09:34:18.349Z,66.65
2023-05-06T09:35:18.365Z,66.22
2023-05-06T09:36:18.477Z,67.05
2023-05-06T09:37:18.357Z,65.36
2023-05-06T09:38:18.424Z,63.95
2023-05-06T09:39:18.326Z,63.69
2023-05-06T09:40:18.432Z,64.20
2023-05-06T09:41:18.314Z,59.95
2023-05-06T09:42:18.319Z,60.78
2023-05-06T09:43:18.297Z,59.94
2023-05-06T09:44:18.282Z,61.72
2023-05-06T09:45:18.278Z,61.96
2023-05-06T09:46:19.303Z,60.15
2023-05-06T09:47:18.307Z,58.27
2023-05-06T09:48:18.259Z,57.70
2023-05-06T09:49:18.245Z,58.50
2023-05-06T09:50:18.313Z,60.15
2023-05-06T09:51:18.212Z,60.72
2023-05-06T09:52:22.160Z,60.39
2023-05-06T09:53:18.249Z,59.55
2023-05-06T09:54:18.216Z,60.85
2023-05-06T09:55:18.210Z,59.99
2023-05-06T09:56:18.207Z,58.04
2023-05-06T09:57:18.190Z,57.35
2023-05-06T09:58:18.195Z,58.07
2023-05-06T09:59:18.209Z,58.85
2023-05-06T10:00:18.235Z,60.24
2023-05-06T10:01:32.460Z,61.29
2023-05-06T10:02:20.357Z,60.74
2023-05-06T10:03:50.880Z,60.11
2023-05-06T10:04:50.320Z,62.15
2023-05-06T10:05:50.787Z,64.34
2023-05-06T10:06:51.291Z,64.91
2023-05-06T10:07:50.876Z,65.31
2023-05-06T10:08:50.819Z,63.68
2023-05-06T10:09:50.061Z,63.89
2023-05-06T10:10:50.421Z,63.95
2023-05-06T10:11:50.988Z,64.51
2023-05-06T10:12:50.964Z,63.98
2023-05-06T10:13:18.152Z,63.65
2023-05-06T10:14:18.079Z,62.65
2023-05-06T10:15:18.145Z,63.39
2023-05-06T10:16:18.139Z,62.75
2023-05-06T10:17:19.094Z,63.28
2023-05-06T10:18:18.073Z,63.92
2023-05-06T10:19:18.082Z,64.09
2023-05-06T10:20:18.070Z,61.99
2023-05-06T10:21:18.955Z,60.59
2023-05-06T10:22:18.035Z,60.59
2023-05-06T10:23:18.104Z,62.29
2023-05-06T10:24:18.000Z,61.05
2023-05-06T10:25:18.008Z,62.37
2023-05-06T10:26:18.014Z,63.37
2023-05-06T10:27:17.964Z,63.14
2023-05-06T10:28:25.090Z,63.64
2023-05-06T10:29:18.962Z,62.92
2023-05-06T10:30:18.030Z,62.81
2023-05-06T10:31:17.992Z,62.88
2023-05-06T10:32:17.941Z,61.16
2023-05-06T10:33:17.935Z,60.00
2023-05-06T10:34:17.926Z,58.48
2023-05-06T10:35:17.924Z,57.63
2023-05-06T10:36:18.575Z,59.99
2023-05-06T10:37:17.918Z,56.45
2023-05-06T10:38:17.896Z,57.09
2023-05-06T10:39:17.970Z,61.32
2023-05-06T10:40:17.977Z,62.25
2023-05-06T10:41:17.872Z,62.51
2023-05-06T10:42:17.856Z,62.54
2023-05-06T10:43:17.847Z,63.45
2023-05-06T10:44:17.847Z,60.44
2023-05-06T10:45:17.866Z,60.75
2023-05-06T10:46:17.919Z,62.90
2023-05-06T10:47:17.822Z,64.07
2023-05-06T10:48:17.802Z,62.81
2023-05-06T10:49:17.795Z,62.65
2023-05-06T10:50:17.868Z,61.52
2023-05-06T10:51:17.880Z,60.03
2023-05-06T10:52:17.804Z,59.48
2023-05-06T10:53:17.829Z,59.14
2023-05-06T10:54:17.761Z,60.42
2023-05-06T10:55:19.017Z,61.95
2023-05-06T10:56:18.581Z,61.26
2023-05-06T10:57:17.746Z,59.98
2023-05-06T10:58:17.766Z,57.60
2023-05-06T10:59:17.717Z,56.90
2023-05-06T11:00:18.521Z,56.81
2023-05-06T11:01:17.824Z,57.81
2023-05-06T11:02:17.756Z,58.44
2023-05-06T11:03:17.714Z,60.49
2023-05-06T11:04:18.400Z,60.19
2023-05-06T11:05:18.528Z,60.12
2023-05-06T11:06:18.701Z,62.08
2023-05-06T11:07:17.718Z,60.15
2023-05-06T11:08:17.649Z,60.15
2023-05-06T11:09:17.700Z,61.32
2023-05-06T11:10:17.661Z,59.56
2023-05-06T11:11:17.731Z,58.95
2023-05-06T11:12:17.664Z,58.97
2023-05-06T11:13:17.721Z,57.22
2023-05-06T11:14:18.388Z,55.67
2023-05-06T11:15:17.644Z,54.33
2023-05-06T11:16:17.629Z,54.48
2023-05-06T11:17:17.602Z,55.68
2023-05-06T11:18:17.600Z,57.87
2023-05-06T11:19:17.592Z,59.97
2023-05-06T11:20:17.593Z,60.36
2023-05-06T11:21:17.574Z,59.36
2023-05-06T11:22:17.592Z,60.55
2023-05-06T11:23:17.585Z,59.19
2023-05-06T11:24:50.000Z,60.50
2023-05-06T11:25:17.600Z,57.95
2023-05-06T11:26:18.401Z,58.00
2023-05-06T11:27:17.626Z,56.10
2023-05-06T11:28:17.579Z,57.46
2023-05-06T11:29:18.430Z,56.59
2023-05-06T11:30:17.508Z,57.14
2023-05-06T11:31:17.554Z,57.87
2023-05-06T11:32:17.512Z,58.97
2023-05-06T11:33:17.495Z,60.05
2023-05-06T11:34:17.485Z,60.53
2023-05-06T11:35:17.476Z,62.74
2023-05-06T11:36:17.506Z,61.05
2023-05-06T11:37:18.049Z,58.56
2023-05-06T11:38:17.472Z,58.64
2023-05-06T11:39:18.110Z,56.44
2023-05-06T11:40:18.399Z,56.46
2023-05-06T11:41:17.446Z,57.37
2023-05-06T11:42:19.552Z,57.89
2023-05-06T11:43:17.476Z,57.57
2023-05-06T11:44:17.976Z,57.75
2023-05-06T11:45:17.476Z,58.75
2023-05-06T11:46:17.457Z,58.09
2023-05-06T11:47:17.540Z,57.24
2023-05-06T11:48:17.421Z,57.15
2023-05-06T11:49:17.406Z,55.91
2023-05-06T11:50:17.391Z,53.61
2023-05-06T11:51:17.395Z,55.24
2023-05-06T11:52:17.384Z,55.83
2023-05-06T11:53:17.327Z,55.28
2023-05-06T11:54:17.344Z,53.44
2023-05-06T11:55:49.381Z,53.51
2023-05-06T11:56:17.336Z,53.14
2023-05-06T11:57:17.321Z,53.66
2023-05-06T11:58:18.031Z,53.56
2023-05-06T11:59:18.160Z,53.14
2023-05-06T12:00:17.290Z,52.91
2023-05-06T12:01:17.651Z,49.73
2023-05-06T12:02:18.322Z,52.27
2023-05-06T12:03:17.369Z,51.00
2023-05-06T12:04:17.303Z,51.27
2023-05-06T12:05:17.247Z,51.05
2023-05-06T12:06:17.303Z,50.90
2023-05-06T12:07:18.140Z,51.77
2023-05-06T12:08:26.874Z,51.87
2023-05-06T12:09:19.247Z,52.02
2023-05-06T12:10:17.287Z,49.36
2023-05-06T12:11:17.225Z,49.34
2023-05-06T12:12:17.273Z,48.14
2023-05-06T12:13:17.225Z,49.99
2023-05-06T12:14:17.188Z,47.68
2023-05-06T12:15:17.354Z,47.84
2023-05-06T12:16:17.256Z,50.20
2023-05-06T12:17:17.209Z,51.42
2023-05-06T12:18:17.181Z,52.02
2023-05-06T12:19:17.168Z,52.00
2023-05-06T12:20:17.200Z,51.62
2023-05-06T12:21:17.151Z,52.25
2023-05-06T12:22:17.184Z,51.57
2023-05-06T12:23:17.152Z,52.07
2023-05-06T12:24:17.174Z,52.25
2023-05-06T12:25:18.134Z,51.10
2023-05-06T12:26:17.109Z,50.40
2023-05-06T12:27:17.124Z,49.98
2023-05-06T12:28:17.108Z,49.85
2023-05-06T12:29:17.123Z,49.73
2023-05-06T12:30:17.090Z,49.80
2023-05-06T12:31:17.221Z,49.19
2023-05-06T12:32:17.058Z,48.39
2023-05-06T12:33:17.063Z,49.71
2023-05-06T12:34:18.091Z,48.99
2023-05-06T12:35:17.048Z,46.69
2023-05-06T12:36:17.066Z,47.25
2023-05-06T12:37:17.044Z,49.08
2023-05-06T12:38:17.052Z,49.21
2023-05-06T12:39:17.047Z,48.34
2023-05-06T12:40:17.017Z,49.76
2023-05-06T12:41:50.508Z,49.26
2023-05-06T12:42:17.023Z,49.95
2023-05-06T12:43:16.999Z,51.67
2023-05-06T12:44:17.001Z,51.27
2023-05-06T12:45:16.975Z,50.13
2023-05-06T12:46:17.045Z,49.78
2023-05-06T12:47:17.012Z,49.23
2023-05-06T12:48:16.967Z,50.18
2023-05-06T12:49:16.983Z,51.70
2023-05-06T12:50:16.938Z,52.09
2023-05-06T12:51:16.996Z,50.74
2023-05-06T12:52:16.944Z,51.97
2023-05-06T12:53:16.945Z,52.07
2023-05-06T12:54:16.940Z,52.29
2023-05-06T12:55:16.953Z,51.87
2023-05-06T12:56:16.903Z,52.59
2023-05-06T12:57:16.927Z,52.09
2023-05-06T12:58:16.937Z,51.17
2023-05-06T12:59:16.882Z,51.25
2023-05-06T13:00:16.889Z,50.15
2023-05-06T13:01:16.938Z,49.85
2023-05-06T13:02:16.961Z,50.05
2023-05-06T13:03:17.074Z,51.00
2023-05-06T13:04:16.871Z,52.14
2023-05-06T13:05:17.729Z,53.56
2023-05-06T13:06:17.639Z,54.02
2023-05-06T13:07:16.836Z,55.89
2023-05-06T13:08:16.908Z,56.77
2023-05-06T13:09:17.489Z,55.64
2023-05-06T13:10:16.823Z,54.84
2023-05-06T13:11:16.824Z,54.44